sensor_id;sensor_type;location;lat;lon;timestamp;pressure;altitude;pressure_sealevel;temperature;humidity
11936;BME280;6027;48.576;9.180;2022-12-08T00:01:31;96451.38;;;1.47;100.00
11936;BME280;6027;48.576;9.180;2022-12-08T00:03:58;96451.66;;;1.34;100.00
11936;BME280;6027;48.576;9.180;2022-12-08T00:06:27;96442.56;;;1.29;100.00
11936;BME280;6027;48.576;9.180;2022-12-08T00:09:30;96441.59;;;1.20;100.00
11936;BME280;6027;48.576;9.180;2022-12-08T00:11:59;96442.16;;;1.14;100.00
11936;BME280;6027;48.576;9.180;2022-12-08T00:14:29;96436.25;;;1.12;100.00
11936;BME280;6027;48.576;9.180;2022-12-08T00:16:55;96426.59;;;1.03;100.00
11936;BME280;6027;48.576;9.180;2022-12-08T00:19:22;96426.34;;;1.16;100.00
11936;BME280;6027;48.576;9.180;2022-12-08T00:21:47;96427.03;;;1.08;100.00
11936;BME280;6027;48.576;9.180;2022-12-08T00:24:13;96425.38;;;1.07;100.00
11936;BME280;6027;48.576;9.180;2022-12-08T00:26:38;96421.66;;;1.00;100.00
11936;BME280;6027;48.576;9.180;2022-12-08T00:29:04;96427.28;;;1.05;100.00
11936;BME280;6027;48.576;9.180;2022-12-08T00:31:30;96423.44;;;0.90;100.00
11936;BME280;6027;48.576;9.180;2022-12-08T00:33:56;96423.72;;;1.06;100.00
11936;BME280;6027;48.576;9.180;2022-12-08T00:36:22;96421.66;;;0.90;100.00
11936;BME280;6027;48.576;9.180;2022-12-08T00:38:47;96418.47;;;0.87;100.00
11936;BME280;6027;48.576;9.180;2022-12-08T00:41:15;96416.00;;;0.76;100.00
11936;BME280;6027;48.576;9.180;2022-12-08T00:43:41;96410.09;;;0.83;100.00
11936;BME280;6027;48.576;9.180;2022-12-08T00:46:07;96411.78;;;0.94;100.00
11936;BME280;6027;48.576;9.180;2022-12-08T00:48:33;96417.00;;;0.94;100.00
11936;BME280;6027;48.576;9.180;2022-12-08T00:50:58;96417.78;;;0.85;100.00
11936;BME280;6027;48.576;9.180;2022-12-08T00:53:24;96414.72;;;0.70;100.00
11936;BME280;6027;48.576;9.180;2022-12-08T00:55:49;96414.56;;;0.62;100.00
11936;BME280;6027;48.576;9.180;2022-12-08T00:58:14;96415.94;;;0.56;100.00
11936;BME280;6027;48.576;9.180;2022-12-08T01:00:41;96403.44;;;0.60;100.00
11936;BME280;6027;48.576;9.180;2022-12-08T01:03:10;96406.94;;;0.40;100.00
11936;BME280;6027;48.576;9.180;2022-12-08T01:05:36;96412.19;;;0.49;100.00
11936;BME280;6027;48.576;9.180;2022-12-08T01:08:04;96403.00;;;0.45;100.00
11936;BME280;6027;48.576;9.180;2022-12-08T01:10:30;96405.28;;;0.39;100.00
11936;BME280;6027;48.576;9.180;2022-12-08T01:12:57;96402.41;;;0.42;100.00
11936;BME280;6027;48.576;9.180;2022-12-08T01:15:22;96411.75;;;0.44;100.00
11936;BME280;6027;48.576;9.180;2022-12-08T01:17:48;96411.59;;;0.36;100.00
11936;BME280;6027;48.576;9.180;2022-12-08T01:20:13;96409.38;;;0.31;100.00
11936;BME280;6027;48.576;9.180;2022-12-08T01:22:39;96405.00;;;0.32;100.00
11936;BME280;6027;48.576;9.180;2022-12-08T01:25:04;96401.25;;;0.25;100.00
11936;BME280;6027;48.576;9.180;2022-12-08T01:27:30;96405.88;;;0.12;100.00
11936;BME280;6027;48.576;9.180;2022-12-08T01:29:56;96404.41;;;0.19;100.00
11936;BME280;6027;48.576;9.180;2022-12-08T01:32:21;96406.94;;;0.40;100.00
11936;BME280;6027;48.576;9.180;2022-12-08T01:34:47;96404.91;;;0.43;100.00
11936;BME280;6027;48.576;9.180;2022-12-08T01:37:12;96407.34;;;0.35;100.00
11936;BME280;6027;48.576;9.180;2022-12-08T01:39:37;96408.25;;;0.24;100.00
11936;BME280;6027;48.576;9.180;2022-12-08T01:42:05;96415.09;;;0.25;100.00
11936;BME280;6027;48.576;9.180;2022-12-08T01:46:58;96415.06;;;0.16;100.00
11936;BME280;6027;48.576;9.180;2022-12-08T01:49:33;96404.41;;;0.19;100.00
11936;BME280;6027;48.576;9.180;2022-12-08T01:52:02;96412.94;;;0.30;100.00
11936;BME280;6027;48.576;9.180;2022-12-08T01:54:32;96412.31;;;0.38;100.00
11936;BME280;6027;48.576;9.180;2022-12-08T01:57:09;96407.88;;;0.29;100.00
11936;BME280;6027;48.576;9.180;2022-12-08T01:59:39;96402.28;;;0.33;100.00
11936;BME280;6027;48.576;9.180;2022-12-08T02:02:06;96406.34;;;0.26;100.00
11936;BME280;6027;48.576;9.180;2022-12-08T02:04:32;96401.25;;;0.25;100.00
11936;BME280;6027;48.576;9.180;2022-12-08T02:06:58;96402.22;;;0.24;100.00
11936;BME280;6027;48.576;9.180;2022-12-08T02:09:24;96394.16;;;0.27;100.00
11936;BME280;6027;48.576;9.180;2022-12-08T02:11:50;96403.09;;;0.34;100.00
11936;BME280;6027;48.576;9.180;2022-12-08T02:14:15;96395.84;;;0.38;100.00
11936;BME280;6027;48.576;9.180;2022-12-08T02:19:41;96385.00;;;0.32;100.00
11936;BME280;6027;48.576;9.180;2022-12-08T02:22:22;96379.09;;;0.30;100.00
11936;BME280;6027;48.576;9.180;2022-12-08T02:25:05;96376.09;;;0.35;100.00
11936;BME280;6027;48.576;9.180;2022-12-08T02:36:06;96375.84;;;0.08;100.00
11936;BME280;6027;48.576;9.180;2022-12-08T02:39:07;96368.06;;;-0.13;100.00
11936;BME280;6027;48.576;9.180;2022-12-08T02:41:42;96367.63;;;-0.18;100.00
11936;BME280;6027;48.576;9.180;2022-12-08T02:46:55;96360.22;;;-0.23;100.00
11936;BME280;6027;48.576;9.180;2022-12-08T02:49:27;96354.31;;;-0.25;100.00
11936;BME280;6027;48.576;9.180;2022-12-08T02:54:46;96355.91;;;-0.33;100.00
11936;BME280;6027;48.576;9.180;2022-12-08T03:00:00;96354.56;;;-0.49;100.00
11936;BME280;6027;48.576;9.180;2022-12-08T03:02:44;96345.44;;;-0.43;100.00
11936;BME280;6027;48.576;9.180;2022-12-08T03:08:03;96338.28;;;-0.51;100.00
11936;BME280;6027;48.576;9.180;2022-12-08T03:11:00;96335.56;;;-0.49;100.00
11936;BME280;6027;48.576;9.180;2022-12-08T03:13:39;96331.31;;;-0.50;100.00
11936;BME280;6027;48.576;9.180;2022-12-08T03:16:07;96330.34;;;-0.70;100.00
11936;BME280;6027;48.576;9.180;2022-12-08T03:18:37;96328.13;;;-0.75;100.00
11936;BME280;6027;48.576;9.180;2022-12-08T03:21:05;96320.72;;;-0.58;100.00
11936;BME280;6027;48.576;9.180;2022-12-08T03:23:31;96324.78;;;-0.65;100.00
11936;BME280;6027;48.576;9.180;2022-12-08T03:26:11;96322.88;;;-0.63;100.00
11936;BME280;6027;48.576;9.180;2022-12-08T03:28:38;96323.19;;;-0.57;100.00
11936;BME280;6027;48.576;9.180;2022-12-08T03:31:06;96316.78;;;-0.53;100.00
11936;BME280;6027;48.576;9.180;2022-12-08T03:33:36;96327.38;;;-0.65;100.00
11936;BME280;6027;48.576;9.180;2022-12-08T03:36:06;96317.59;;;-0.73;100.00
11936;BME280;6027;48.576;9.180;2022-12-08T03:38:40;96314.63;;;-0.68;100.00
11936;BME280;6027;48.576;9.180;2022-12-08T03:41:07;96300.19;;;-0.61;100.00
11936;BME280;6027;48.576;9.180;2022-12-08T03:43:55;96301.72;;;-0.59;100.00
11936;BME280;6027;48.576;9.180;2022-12-08T03:46:23;96307.97;;;-0.61;100.00
11936;BME280;6027;48.576;9.180;2022-12-08T03:48:49;96298.91;;;-0.46;100.00
11936;BME280;6027;48.576;9.180;2022-12-08T03:51:15;96302.47;;;-0.68;100.00
11936;BME280;6027;48.576;9.180;2022-12-08T03:53:42;96298.28;;;-0.59;100.00
11936;BME280;6027;48.576;9.180;2022-12-08T03:58:43;96300.09;;;-0.50;100.00
11936;BME280;6027;48.576;9.180;2022-12-08T04:01:09;96298.91;;;-0.46;100.00
11936;BME280;6027;48.576;9.180;2022-12-08T04:03:35;96295.16;;;-0.53;100.00
11936;BME280;6027;48.576;9.180;2022-12-08T04:06:00;96289.13;;;-0.54;100.00
11936;BME280;6027;48.576;9.180;2022-12-08T04:08:26;96289.94;;;-0.53;100.00
11936;BME280;6027;48.576;9.180;2022-12-08T04:10:51;96290.91;;;-0.54;100.00
11936;BME280;6027;48.576;9.180;2022-12-08T04:13:16;96288.63;;;-0.48;100.00
11936;BME280;6027;48.576;9.180;2022-12-08T04:15:46;96287.53;;;-0.45;100.00
11936;BME280;6027;48.576;9.180;2022-12-08T04:18:13;96284.44;;;-0.39;100.00
11936;BME280;6027;48.576;9.180;2022-12-08T04:20:39;96292.41;;;-0.31;100.00
11936;BME280;6027;48.576;9.180;2022-12-08T04:23:06;96285.44;;;-0.30;100.00
11936;BME280;6027;48.576;9.180;2022-12-08T04:25:32;96278.13;;;-0.37;100.00
11936;BME280;6027;48.576;9.180;2022-12-08T04:27:58;96283.19;;;-0.35;100.00
11936;BME280;6027;48.576;9.180;2022-12-08T04:30:23;96274.41;;;-0.44;100.00
11936;BME280;6027;48.576;9.180;2022-12-08T04:32:48;96286.06;;;-0.38;100.00
11936;BME280;6027;48.576;9.180;2022-12-08T04:35:14;96290.03;;;-0.44;100.00
11936;BME280;6027;48.576;9.180;2022-12-08T04:37:39;96284.06;;;-0.55;100.00
11936;BME280;6027;48.576;9.180;2022-12-08T04:40:06;96276.06;;;-0.43;100.00
11936;BME280;6027;48.576;9.180;2022-12-08T04:42:31;96277.59;;;-0.40;100.00
11936;BME280;6027;48.576;9.180;2022-12-08T04:44:56;96268.41;;;-0.44;100.00
11936;BME280;6027;48.576;9.180;2022-12-08T04:47:22;96274.34;;;-0.53;100.00
11936;BME280;6027;48.576;9.180;2022-12-08T04:49:47;96268.75;;;-0.58;100.00
11936;BME280;6027;48.576;9.180;2022-12-08T04:52:13;96265.13;;;-0.67;100.00
11936;BME280;6027;48.576;9.180;2022-12-08T04:54:38;96259.78;;;-0.65;100.00
11936;BME280;6027;48.576;9.180;2022-12-08T04:57:04;96261.50;;;-0.76;100.00
11936;BME280;6027;48.576;9.180;2022-12-08T04:59:29;96264.75;;;-0.83;100.00
11936;BME280;6027;48.576;9.180;2022-12-08T05:01:55;96268.78;;;-0.90;100.00
11936;BME280;6027;48.576;9.180;2022-12-08T05:04:20;96271.03;;;-0.86;100.00
11936;BME280;6027;48.576;9.180;2022-12-08T05:06:45;96260.25;;;-1.02;100.00
11936;BME280;6027;48.576;9.180;2022-12-08T05:09:11;96258.47;;;-0.81;100.00
11936;BME280;6027;48.576;9.180;2022-12-08T05:11:36;96262.44;;;-0.77;100.00
11936;BME280;6027;48.576;9.180;2022-12-08T05:14:10;96265.50;;;-0.72;100.00
11936;BME280;6027;48.576;9.180;2022-12-08T05:16:35;96272.47;;;-0.72;100.00
11936;BME280;6027;48.576;9.180;2022-12-08T05:19:01;96268.19;;;-0.83;100.00
11936;BME280;6027;48.576;9.180;2022-12-08T05:21:26;96256.13;;;-0.84;100.00
11936;BME280;6027;48.576;9.180;2022-12-08T05:23:52;96261.19;;;-0.82;100.00
11936;BME280;6027;48.576;9.180;2022-12-08T05:26:17;96257.22;;;-0.86;100.00
11936;BME280;6027;48.576;9.180;2022-12-08T05:28:43;96255.88;;;-1.01;100.00
11936;BME280;6027;48.576;9.180;2022-12-08T05:31:09;96259.75;;;-1.17;100.00
11936;BME280;6027;48.576;9.180;2022-12-08T05:33:35;96265.06;;;-1.18;100.00
11936;BME280;6027;48.576;9.180;2022-12-08T05:36:00;96253.72;;;-1.49;100.00
11936;BME280;6027;48.576;9.180;2022-12-08T05:38:26;96262.31;;;-1.49;100.00
11936;BME280;6027;48.576;9.180;2022-12-08T05:40:51;96258.50;;;-1.33;100.00
11936;BME280;6027;48.576;9.180;2022-12-08T05:43:17;96258.50;;;-1.33;100.00
11936;BME280;6027;48.576;9.180;2022-12-08T05:45:42;96258.06;;;-1.38;100.00
11936;BME280;6027;48.576;9.180;2022-12-08T05:48:07;96261.53;;;-1.28;100.00
11936;BME280;6027;48.576;9.180;2022-12-08T05:50:33;96253.03;;;-1.19;100.00
11936;BME280;6027;48.576;9.180;2022-12-08T05:52:58;96257.69;;;-1.13;100.00
11936;BME280;6027;48.576;9.180;2022-12-08T05:55:24;96255.09;;;-1.13;100.00
11936;BME280;6027;48.576;9.180;2022-12-08T05:57:49;96244.69;;;-1.13;100.00
11936;BME280;6027;48.576;9.180;2022-12-08T06:00:15;96249.47;;;-1.18;100.00
11936;BME280;6027;48.576;9.180;2022-12-08T06:02:41;96245.50;;;-1.33;100.00
11936;BME280;6027;48.576;9.180;2022-12-08T06:05:06;96243.06;;;-1.35;100.00
11936;BME280;6027;48.576;9.180;2022-12-08T06:07:32;96244.69;;;-1.34;100.00
11936;BME280;6027;48.576;9.180;2022-12-08T06:09:58;96240.84;;;-1.51;100.00
11936;BME280;6027;48.576;9.180;2022-12-08T06:12:23;96247.47;;;-1.47;100.00
11936;BME280;6027;48.576;9.180;2022-12-08T06:14:49;96240.53;;;-1.57;100.00
11936;BME280;6027;48.576;9.180;2022-12-08T06:17:14;96244.16;;;-1.49;100.00
11936;BME280;6027;48.576;9.180;2022-12-08T06:19:40;96233.31;;;-1.54;100.00
11936;BME280;6027;48.576;9.180;2022-12-08T06:22:05;96248.63;;;-1.40;100.00
11936;BME280;6027;48.576;9.180;2022-12-08T06:24:31;96249.75;;;-1.32;100.00
11936;BME280;6027;48.576;9.180;2022-12-08T06:26:57;96249.19;;;-1.36;100.00
11936;BME280;6027;48.576;9.180;2022-12-08T06:29:23;96249.06;;;-1.34;100.00
11936;BME280;6027;48.576;9.180;2022-12-08T06:31:49;96253.94;;;-1.41;100.00
11936;BME280;6027;48.576;9.180;2022-12-08T06:34:14;96257.53;;;-1.32;100.00
11936;BME280;6027;48.576;9.180;2022-12-08T06:36:40;96253.94;;;-1.41;100.00
11936;BME280;6027;48.576;9.180;2022-12-08T06:39:05;96241.38;;;-1.57;100.00
11936;BME280;6027;48.576;9.180;2022-12-08T06:41:31;96254.06;;;-1.43;100.00
11936;BME280;6027;48.576;9.180;2022-12-08T06:43:56;96256.84;;;-1.34;100.00
11936;BME280;6027;48.576;9.180;2022-12-08T06:46:25;96253.16;;;-1.32;100.00
11936;BME280;6027;48.576;9.180;2022-12-08T06:48:51;96265.22;;;-1.31;100.00
11936;BME280;6027;48.576;9.180;2022-12-08T06:51:19;96259.50;;;-1.46;100.00
11936;BME280;6027;48.576;9.180;2022-12-08T06:53:45;96254.41;;;-1.47;100.00
11936;BME280;6027;48.576;9.180;2022-12-08T06:56:12;96249.22;;;-1.47;100.00
11936;BME280;6027;48.576;9.180;2022-12-08T06:58:38;96252.47;;;-1.55;100.00
11936;BME280;6027;48.576;9.180;2022-12-08T07:01:09;96252.06;;;-1.50;100.00
11936;BME280;6027;48.576;9.180;2022-12-08T07:03:35;96257.66;;;-1.55;100.00
11936;BME280;6027;48.576;9.180;2022-12-08T07:06:00;96252.88;;;-1.50;100.00
11936;BME280;6027;48.576;9.180;2022-12-08T07:08:26;96267.31;;;-1.57;100.00
11936;BME280;6027;48.576;9.180;2022-12-08T07:10:51;96264.03;;;-1.59;100.00
11936;BME280;6027;48.576;9.180;2022-12-08T07:13:17;96269.69;;;-1.65;100.00
11936;BME280;6027;48.576;9.180;2022-12-08T07:15:42;96272.06;;;-1.62;100.00
11936;BME280;6027;48.576;9.180;2022-12-08T07:18:08;96264.63;;;-1.55;100.00
11936;BME280;6027;48.576;9.180;2022-12-08T07:20:33;96266.03;;;-1.62;100.00
11936;BME280;6027;48.576;9.180;2022-12-08T07:22:58;96266.28;;;-1.65;100.00
11936;BME280;6027;48.576;9.180;2022-12-08T07:25:24;96269.34;;;-1.60;100.00
11936;BME280;6027;48.576;9.180;2022-12-08T07:27:49;96273.59;;;-1.59;100.00
11936;BME280;6027;48.576;9.180;2022-12-08T07:30:17;96277.97;;;-1.71;100.00
11936;BME280;6027;48.576;9.180;2022-12-08T07:32:42;96282.34;;;-1.83;100.00
11936;BME280;6027;48.576;9.180;2022-12-08T07:35:08;96280.00;;;-1.86;100.00
11936;BME280;6027;48.576;9.180;2022-12-08T07:37:34;96274.00;;;-1.97;100.00
11936;BME280;6027;48.576;9.180;2022-12-08T07:40:05;96277.91;;;-2.03;100.00
11936;BME280;6027;48.576;9.180;2022-12-08T07:42:30;96275.91;;;-1.99;100.00
11936;BME280;6027;48.576;9.180;2022-12-08T07:44:56;96286.16;;;-2.09;100.00
11936;BME280;6027;48.576;9.180;2022-12-08T07:47:21;96281.59;;;-2.17;100.00
11936;BME280;6027;48.576;9.180;2022-12-08T07:49:47;96290.06;;;-2.15;100.00
11936;BME280;6027;48.576;9.180;2022-12-08T07:52:12;96291.22;;;-2.08;100.00
11936;BME280;6027;48.576;9.180;2022-12-08T07:54:38;96282.63;;;-1.97;100.00
11936;BME280;6027;48.576;9.180;2022-12-08T07:57:03;96282.94;;;-1.90;100.00
11936;BME280;6027;48.576;9.180;2022-12-08T07:59:30;96284.97;;;-1.94;100.00
11936;BME280;6027;48.576;9.180;2022-12-08T08:01:56;96282.00;;;-1.78;100.00
11936;BME280;6027;48.576;9.180;2022-12-08T08:04:21;96276.59;;;-1.86;100.00
11936;BME280;6027;48.576;9.180;2022-12-08T08:06:46;96288.28;;;-2.03;100.00
11936;BME280;6027;48.576;9.180;2022-12-08T08:09:12;96277.09;;;-2.03;100.00
11936;BME280;6027;48.576;9.180;2022-12-08T08:11:37;96280.94;;;-1.87;100.00
11936;BME280;6027;48.576;9.180;2022-12-08T08:14:03;96283.25;;;-1.73;100.00
11936;BME280;6027;48.576;9.180;2022-12-08T08:16:28;96286.44;;;-1.69;100.00
11936;BME280;6027;48.576;9.180;2022-12-08T08:18:54;96271.72;;;-1.68;100.00
11936;BME280;6027;48.576;9.180;2022-12-08T08:21:20;96277.59;;;-1.66;100.00
11936;BME280;6027;48.576;9.180;2022-12-08T08:23:46;96275.47;;;-1.61;100.00
11936;BME280;6027;48.576;9.180;2022-12-08T08:26:11;96267.88;;;-1.53;100.00
11936;BME280;6027;48.576;9.180;2022-12-08T08:28:37;96273.53;;;-1.48;100.00
11936;BME280;6027;48.576;9.180;2022-12-08T08:31:04;96272.84;;;-1.50;100.00
11936;BME280;6027;48.576;9.180;2022-12-08T08:33:29;96262.31;;;-1.49;100.00
11936;BME280;6027;48.576;9.180;2022-12-08T08:36:04;96269.16;;;-1.48;100.00
11936;BME280;6027;48.576;9.180;2022-12-08T08:38:30;96259.03;;;-1.51;100.00
11936;BME280;6027;48.576;9.180;2022-12-08T08:40:56;96265.94;;;-1.08;100.00
11936;BME280;6027;48.576;9.180;2022-12-08T08:43:21;96270.44;;;-0.68;100.00
11936;BME280;6027;48.576;9.180;2022-12-08T08:45:59;96272.28;;;-0.29;100.00
11936;BME280;6027;48.576;9.180;2022-12-08T08:48:29;96265.19;;;0.23;100.00
11936;BME280;6027;48.576;9.180;2022-12-08T08:50:56;96268.28;;;0.47;100.00
11936;BME280;6027;48.576;9.180;2022-12-08T08:53:22;96263.09;;;0.86;100.00
11936;BME280;6027;48.576;9.180;2022-12-08T08:55:48;96266.78;;;1.12;100.00
11936;BME280;6027;48.576;9.180;2022-12-08T08:58:15;96261.69;;;1.30;100.00
11936;BME280;6027;48.576;9.180;2022-12-08T09:00:40;96262.75;;;1.37;100.00
11936;BME280;6027;48.576;9.180;2022-12-08T09:03:05;96258.25;;;1.29;100.00
11936;BME280;6027;48.576;9.180;2022-12-08T09:05:31;96255.88;;;1.36;100.00
11936;BME280;6027;48.576;9.180;2022-12-08T09:07:56;96244.34;;;1.38;100.00
11936;BME280;6027;48.576;9.180;2022-12-08T09:10:22;96247.50;;;1.42;100.00
11936;BME280;6027;48.576;9.180;2022-12-08T09:12:47;96242.59;;;1.29;100.00
11936;BME280;6027;48.576;9.180;2022-12-08T09:15:13;96242.88;;;1.26;100.00
11936;BME280;6027;48.576;9.180;2022-12-08T09:17:38;96237.66;;;1.26;100.00
11936;BME280;6027;48.576;9.180;2022-12-08T09:20:05;96247.41;;;1.24;100.00
11936;BME280;6027;48.576;9.180;2022-12-08T09:22:30;96241.88;;;1.37;100.00
11936;BME280;6027;48.576;9.180;2022-12-08T09:24:56;96237.25;;;1.21;100.00
11936;BME280;6027;48.576;9.180;2022-12-08T09:27:21;96239.41;;;1.35;100.00
11936;BME280;6027;48.576;9.180;2022-12-08T09:29:47;96236.16;;;1.33;100.00
11936;BME280;6027;48.576;9.180;2022-12-08T09:32:12;96236.94;;;1.44;100.00
11936;BME280;6027;48.576;9.180;2022-12-08T09:34:38;96233.09;;;1.48;100.00
11936;BME280;6027;48.576;9.180;2022-12-08T09:37:03;96231.75;;;1.34;100.00
11936;BME280;6027;48.576;9.180;2022-12-08T09:39:29;96238.03;;;1.51;100.00
11936;BME280;6027;48.576;9.180;2022-12-08T09:42:00;96220.44;;;1.53;100.00
11936;BME280;6027;48.576;9.180;2022-12-08T09:44:49;96221.84;;;1.47;100.00
11936;BME280;6027;48.576;9.180;2022-12-08T09:50:04;96220.78;;;1.30;100.00
11936;BME280;6027;48.576;9.180;2022-12-08T09:53:13;96218.19;;;1.30;100.00
11936;BME280;6027;48.576;9.180;2022-12-08T09:55:45;96224.59;;;1.36;100.00
11936;BME280;6027;48.576;9.180;2022-12-08T09:58:20;96220.72;;;1.50;100.00
11936;BME280;6027;48.576;9.180;2022-12-08T10:00:48;96220.88;;;1.38;100.00
11936;BME280;6027;48.576;9.180;2022-12-08T10:03:14;96217.03;;;1.43;100.00
11936;BME280;6027;48.576;9.180;2022-12-08T10:05:48;96204.81;;;1.53;100.00
11936;BME280;6027;48.576;9.180;2022-12-08T10:08:28;96201.38;;;1.52;100.00
11936;BME280;6027;48.576;9.180;2022-12-08T10:11:04;96193.81;;;1.49;100.00
11936;BME280;6027;48.576;9.180;2022-12-08T10:13:42;96192.41;;;1.55;100.00
11936;BME280;6027;48.576;9.180;2022-12-08T10:16:21;96188.00;;;1.65;100.00
11936;BME280;6027;48.576;9.180;2022-12-08T10:21:20;96184.16;;;1.59;100.00
11936;BME280;6027;48.576;9.180;2022-12-08T10:23:54;96176.31;;;1.69;100.00
11936;BME280;6027;48.576;9.180;2022-12-08T10:26:22;96182.88;;;1.73;100.00
11936;BME280;6027;48.576;9.180;2022-12-08T10:28:48;96177.47;;;1.84;100.00
11936;BME280;6027;48.576;9.180;2022-12-08T10:31:24;96181.47;;;2.06;100.00
11936;BME280;6027;48.576;9.180;2022-12-08T10:34:00;96169.38;;;2.05;100.00
11936;BME280;6027;48.576;9.180;2022-12-08T10:36:44;96169.38;;;2.05;100.00
11936;BME280;6027;48.576;9.180;2022-12-08T10:39:34;96164.00;;;2.06;100.00
11936;BME280;6027;48.576;9.180;2022-12-08T10:47:24;96168.44;;;2.41;100.00
11936;BME280;6027;48.576;9.180;2022-12-08T10:50:16;96163.94;;;2.34;100.00
11936;BME280;6027;48.576;9.180;2022-12-08T10:52:43;96161.81;;;2.47;100.00
11936;BME280;6027;48.576;9.180;2022-12-08T10:55:17;96150.97;;;2.42;100.00
11936;BME280;6027;48.576;9.180;2022-12-08T10:57:43;96151.94;;;2.41;100.00
11936;BME280;6027;48.576;9.180;2022-12-08T11:00:33;96155.53;;;2.40;100.00
11936;BME280;6027;48.576;9.180;2022-12-08T11:03:32;96144.84;;;2.51;100.00
11936;BME280;6027;48.576;9.180;2022-12-08T11:06:00;96135.00;;;2.45;100.00
11936;BME280;6027;48.576;9.180;2022-12-08T11:08:46;96125.97;;;2.39;100.00
11936;BME280;6027;48.576;9.180;2022-12-08T11:11:14;96128.34;;;2.51;100.00
11936;BME280;6027;48.576;9.180;2022-12-08T11:17:06;96124.91;;;2.68;98.63
11936;BME280;6027;48.576;9.180;2022-12-08T11:19:37;96121.31;;;2.69;98.96
11936;BME280;6027;48.576;9.180;2022-12-08T11:27:45;96108.50;;;2.84;96.84
11936;BME280;6027;48.576;9.180;2022-12-08T11:30:20;96097.75;;;2.87;98.68
11936;BME280;6027;48.576;9.180;2022-12-08T11:32:50;96105.53;;;3.04;97.11
11936;BME280;6027;48.576;9.180;2022-12-08T11:35:39;96095.78;;;3.15;97.20
11936;BME280;6027;48.576;9.180;2022-12-08T11:38:23;96097.22;;;3.09;97.21
11936;BME280;6027;48.576;9.180;2022-12-08T11:46:51;96092.94;;;3.34;93.76
11936;BME280;6027;48.576;9.180;2022-12-08T11:49:18;96080.16;;;3.31;92.52
11936;BME280;6027;48.576;9.180;2022-12-08T11:52:01;96077.81;;;3.45;91.26
11936;BME280;6027;48.576;9.180;2022-12-08T11:54:37;96075.97;;;3.38;87.10
11936;BME280;6027;48.576;9.180;2022-12-08T11:57:10;96081.50;;;3.35;83.47
11936;BME280;6027;48.576;9.180;2022-12-08T11:59:39;96078.88;;;3.35;86.00
11936;BME280;6027;48.576;9.180;2022-12-08T12:02:13;96078.66;;;3.20;85.29
11936;BME280;6027;48.576;9.180;2022-12-08T12:04:45;96075.84;;;3.13;85.86
11936;BME280;6027;48.576;9.180;2022-12-08T12:20:53;96069.41;;;3.08;83.47
11936;BME280;6027;48.576;9.180;2022-12-08T12:23:40;96069.47;;;3.16;83.93
11936;BME280;6027;48.576;9.180;2022-12-08T12:26:16;96062.97;;;3.20;83.48
11936;BME280;6027;48.576;9.180;2022-12-08T12:28:56;96059.44;;;3.37;84.64
11936;BME280;6027;48.576;9.180;2022-12-08T12:31:32;96054.25;;;3.54;83.81
11936;BME280;6027;48.576;9.180;2022-12-08T12:34:18;96059.53;;;3.62;80.07
11936;BME280;6027;48.576;9.180;2022-12-08T12:37:07;96051.31;;;3.57;80.71
11936;BME280;6027;48.576;9.180;2022-12-08T12:39:33;96048.72;;;3.57;80.68
11936;BME280;6027;48.576;9.180;2022-12-08T12:42:42;96046.59;;;3.60;80.66
11936;BME280;6027;48.576;9.180;2022-12-08T12:47:52;96036.31;;;3.75;76.82
11936;BME280;6027;48.576;9.180;2022-12-08T12:50:48;96043.66;;;3.71;77.62
11936;BME280;6027;48.576;9.180;2022-12-08T12:55:58;96042.16;;;3.53;79.60
11936;BME280;6027;48.576;9.180;2022-12-08T13:04:25;96013.00;;;3.39;77.67
11936;BME280;6027;48.576;9.180;2022-12-08T13:06:39;96032.66;;;3.43;77.52
11936;BME280;6027;48.576;9.180;2022-12-08T13:09:06;96041.78;;;3.39;78.41
11936;BME280;6027;48.576;9.180;2022-12-08T13:11:47;96036.59;;;3.56;78.04
11936;BME280;6027;48.576;9.180;2022-12-08T13:14:28;96036.78;;;3.70;77.49
11936;BME280;6027;48.576;9.180;2022-12-08T13:16:57;96035.31;;;3.68;77.52
11936;BME280;6027;48.576;9.180;2022-12-08T13:19:23;96045.94;;;3.58;80.26
11936;BME280;6027;48.576;9.180;2022-12-08T13:21:49;96035.53;;;3.32;77.79
11936;BME280;6027;48.576;9.180;2022-12-08T13:24:28;96038.03;;;3.08;80.88
11936;BME280;6027;48.576;9.180;2022-12-08T13:29:29;96038.44;;;2.87;83.94
11936;BME280;6027;48.576;9.180;2022-12-08T13:32:02;96036.81;;;2.86;85.04
11936;BME280;6027;48.576;9.180;2022-12-08T13:42:48;96024.44;;;2.70;84.58
11936;BME280;6027;48.576;9.180;2022-12-08T13:45:21;96026.25;;;2.70;85.89
11936;BME280;6027;48.576;9.180;2022-12-08T13:50:33;96015.09;;;2.60;83.89
11936;BME280;6027;48.576;9.180;2022-12-08T13:53:12;96019.44;;;2.51;83.42
11936;BME280;6027;48.576;9.180;2022-12-08T13:55:58;96020.72;;;2.47;85.81
11936;BME280;6027;48.576;9.180;2022-12-08T14:03:17;96023.00;;;2.24;87.94
11936;BME280;6027;48.576;9.180;2022-12-08T14:05:42;96033.47;;;2.24;87.62
11936;BME280;6027;48.576;9.180;2022-12-08T14:08:18;96025.31;;;2.27;88.12
11936;BME280;6027;48.576;9.180;2022-12-08T14:10:52;96028.38;;;2.23;88.79
11936;BME280;6027;48.576;9.180;2022-12-08T14:13:23;96024.94;;;2.22;88.56
11936;BME280;6027;48.576;9.180;2022-12-08T14:15:49;96028.53;;;2.21;89.00
11936;BME280;6027;48.576;9.180;2022-12-08T14:18:27;96028.16;;;2.16;89.10
11936;BME280;6027;48.576;9.180;2022-12-08T14:21:11;96026.38;;;2.17;88.71
11936;BME280;6027;48.576;9.180;2022-12-08T14:23:36;96028.31;;;2.15;88.19
11936;BME280;6027;48.576;9.180;2022-12-08T14:26:04;96029.66;;;2.19;88.52
11936;BME280;6027;48.576;9.180;2022-12-08T14:28:33;96020.94;;;2.10;89.00
11936;BME280;6027;48.576;9.180;2022-12-08T14:30:58;96017.50;;;2.27;88.86
11936;BME280;6027;48.576;9.180;2022-12-08T14:33:25;96018.25;;;2.02;89.89
11936;BME280;6027;48.576;9.180;2022-12-08T14:35:53;96030.19;;;2.04;91.25
11936;BME280;6027;48.576;9.180;2022-12-08T14:38:20;96022.06;;;2.07;90.45
11936;BME280;6027;48.576;9.180;2022-12-08T14:43:27;96026.81;;;2.12;92.25
11936;BME280;6027;48.576;9.180;2022-12-08T14:45:57;96026.38;;;2.17;92.23
11936;BME280;6027;48.576;9.180;2022-12-08T14:57:08;96016.84;;;2.33;90.38
11936;BME280;6027;48.576;9.180;2022-12-08T15:01:46;96017.13;;;2.22;91.97
11936;BME280;6027;48.576;9.180;2022-12-08T15:06:52;96027.56;;;2.22;91.88
11936;BME280;6027;48.576;9.180;2022-12-08T15:09:45;96021.25;;;2.33;90.43
11936;BME280;6027;48.576;9.180;2022-12-08T15:14:53;96029.38;;;2.48;88.82